HTZA/ZNZ METAR and TAF weather

Enter ICAO airport designator
Station Type Date Time Source
HTZA METAR 2019/08/24 20:00 UTC NOAA

HTZA 242000Z 17004KT 9999 SCT012 25/21 Q1019 NOSIG


Station Type Date Time Source
HTZA Decoded METAR 2019/08/24 20:00 UTC NOAA

Station name not available
Aug 24, 2019 - 04:00 PM EDT / 2019.08.24 2000 UTC
Wind: from the S (170 degrees) at 5 MPH (4 KT):0
Visibility: greater than 7 mile(s):0
Sky conditions: partly cloudy
Temperature: 77 F (25 C)
Dew Point: 69 F (21 C)
Relative Humidity: 78%
Pressure (altimeter): 30.09 in. Hg (1019 hPa)
ob: HTZA 242000Z 17004KT 9999 SCT012 25/21 Q1019 NOSIG
cycle: 20

Station Type Date Time Source
HTZA TAF 2019/08/24 18:24 UTC NOAA

HTZA 241700Z 2418/2518 14005KT 9999 FEW014 SCT080
BECMG 2501/2503 21010KT BKN012 BKN070
BECMG 2509/2511 13010KT SCT022

Example: see airport list